sensor_id;sensor_type;location;lat;lon;timestamp;pressure;altitude;pressure_sealevel;temperature;humidity
34205;BME280;20471;49.680;20.074;2022-11-15T00:00:55;97540.57;;;1.08;72.24
34205;BME280;20471;49.680;20.074;2022-11-15T00:03:24;97540.37;;;1.05;72.35
34205;BME280;20471;49.680;20.074;2022-11-15T00:05:52;97538.41;;;1.07;72.38
34205;BME280;20471;49.680;20.074;2022-11-15T00:08:19;97536.73;;;1.06;72.42
34205;BME280;20471;49.680;20.074;2022-11-15T00:10:56;97534.23;;;1.09;72.54
34205;BME280;20471;49.680;20.074;2022-11-15T00:13:23;97531.44;;;1.11;72.70
34205;BME280;20471;49.680;20.074;2022-11-15T00:15:50;97529.13;;;1.12;72.77
34205;BME280;20471;49.680;20.074;2022-11-15T00:18:17;97529.13;;;1.12;72.86
34205;BME280;20471;49.680;20.074;2022-11-15T00:20:44;97523.23;;;1.04;73.00
34205;BME280;20471;49.680;20.074;2022-11-15T00:23:11;97524.56;;;1.04;73.07
34205;BME280;20471;49.680;20.074;2022-11-15T00:25:37;97518.12;;;1.06;73.05
34205;BME280;20471;49.680;20.074;2022-11-15T00:28:04;97519.94;;;1.06;72.95
34205;BME280;20471;49.680;20.074;2022-11-15T00:30:31;97517.72;;;1.01;72.87
34205;BME280;20471;49.680;20.074;2022-11-15T00:33:07;97516.39;;;1.01;72.86
34205;BME280;20471;49.680;20.074;2022-11-15T00:35:35;97506.10;;;1.02;72.97
34205;BME280;20471;49.680;20.074;2022-11-15T00:38:02;97507.57;;;1.01;72.94
34205;BME280;20471;49.680;20.074;2022-11-15T00:40:29;97508.41;;;1.01;73.08
34205;BME280;20471;49.680;20.074;2022-11-15T00:42:57;97503.24;;;1.00;73.00
34205;BME280;20471;49.680;20.074;2022-11-15T00:45:24;97504.55;;;0.96;72.98
34205;BME280;20471;49.680;20.074;2022-11-15T00:47:51;97498.73;;;0.96;72.96
34205;BME280;20471;49.680;20.074;2022-11-15T00:50:19;97495.05;;;0.93;72.96
34205;BME280;20471;49.680;20.074;2022-11-15T00:52:45;97493.71;;;0.93;73.09
34205;BME280;20471;49.680;20.074;2022-11-15T00:55:16;97487.91;;;0.94;73.18
34205;BME280;20471;49.680;20.074;2022-11-15T00:57:43;97494.75;;;0.96;73.13
34205;BME280;20471;49.680;20.074;2022-11-15T01:00:11;97492.73;;;0.94;73.24
34205;BME280;20471;49.680;20.074;2022-11-15T01:02:38;97487.36;;;0.90;73.17
34205;BME280;20471;49.680;20.074;2022-11-15T01:05:05;97484.01;;;0.88;73.22
34205;BME280;20471;49.680;20.074;2022-11-15T01:07:32;97484.64;;;0.86;73.33
34205;BME280;20471;49.680;20.074;2022-11-15T01:09:58;97481.98;;;0.86;73.31
34205;BME280;20471;49.680;20.074;2022-11-15T01:12:25;97477.98;;;0.82;73.34
34205;BME280;20471;49.680;20.074;2022-11-15T01:14:51;97475.20;;;0.74;73.32
34205;BME280;20471;49.680;20.074;2022-11-15T01:17:18;97476.04;;;0.75;73.45
34205;BME280;20471;49.680;20.074;2022-11-15T01:19:45;97482.52;;;0.72;73.49
34205;BME280;20471;49.680;20.074;2022-11-15T01:22:11;97474.48;;;0.68;73.51
34205;BME280;20471;49.680;20.074;2022-11-15T01:24:38;97472.17;;;0.69;73.55
34205;BME280;20471;49.680;20.074;2022-11-15T01:27:04;97472.46;;;0.66;73.64
34205;BME280;20471;49.680;20.074;2022-11-15T01:29:31;97467.49;;;0.67;73.80
34205;BME280;20471;49.680;20.074;2022-11-15T01:31:57;97463.56;;;0.71;73.92
34205;BME280;20471;49.680;20.074;2022-11-15T01:34:24;97468.56;;;0.74;73.85
34205;BME280;20471;49.680;20.074;2022-11-15T01:36:51;97471.56;;;0.75;73.71
34205;BME280;20471;49.680;20.074;2022-11-15T01:39:18;97461.26;;;0.72;73.75
34205;BME280;20471;49.680;20.074;2022-11-15T01:41:45;97459.23;;;0.70;73.84
34205;BME280;20471;49.680;20.074;2022-11-15T01:44:49;97461.89;;;0.70;73.85
34205;BME280;20471;49.680;20.074;2022-11-15T01:47:20;97459.58;;;0.71;73.89
34205;BME280;20471;49.680;20.074;2022-11-15T01:52:28;97460.59;;;0.74;73.99
34205;BME280;20471;49.680;20.074;2022-11-15T01:55:08;97458.28;;;0.75;74.08
34205;BME280;20471;49.680;20.074;2022-11-15T01:57:47;97455.63;;;0.75;74.20
34205;BME280;20471;49.680;20.074;2022-11-15T02:00:17;97453.28;;;0.72;74.30
34205;BME280;20471;49.680;20.074;2022-11-15T02:02:44;97452.27;;;0.73;74.45
34205;BME280;20471;49.680;20.074;2022-11-15T02:05:10;97450.66;;;0.76;74.40
34205;BME280;20471;49.680;20.074;2022-11-15T02:07:37;97451.78;;;0.73;74.51
34205;BME280;20471;49.680;20.074;2022-11-15T02:12:39;97442.83;;;0.75;74.54
34205;BME280;20471;49.680;20.074;2022-11-15T02:15:07;97444.16;;;0.75;74.41
34205;BME280;20471;49.680;20.074;2022-11-15T02:23:41;97431.42;;;0.78;74.49
34205;BME280;20471;49.680;20.074;2022-11-15T02:35:02;97431.07;;;0.77;74.46
34205;BME280;20471;49.680;20.074;2022-11-15T02:37:54;97432.67;;;0.70;74.41
34205;BME280;20471;49.680;20.074;2022-11-15T02:43:11;97439.59;;;0.67;74.54
34205;BME280;20471;49.680;20.074;2022-11-15T02:48:58;97426.81;;;0.53;74.62
34205;BME280;20471;49.680;20.074;2022-11-15T02:51:24;97431.49;;;0.55;74.53
34205;BME280;20471;49.680;20.074;2022-11-15T02:53:51;97431.84;;;0.56;74.61
34205;BME280;20471;49.680;20.074;2022-11-15T02:56:17;97429.61;;;0.51;74.61
34205;BME280;20471;49.680;20.074;2022-11-15T03:10:10;97430.08;;;0.47;74.59
34205;BME280;20471;49.680;20.074;2022-11-15T03:12:59;97418.56;;;0.42;74.61
34205;BME280;20471;49.680;20.074;2022-11-15T03:15:31;97423.14;;;0.36;74.65
34205;BME280;20471;49.680;20.074;2022-11-15T03:18:01;97420.58;;;0.30;74.78
34205;BME280;20471;49.680;20.074;2022-11-15T03:20:30;97424.55;;;0.30;74.85
34205;BME280;20471;49.680;20.074;2022-11-15T03:23:01;97423.23;;;0.30;74.78
34205;BME280;20471;49.680;20.074;2022-11-15T03:25:34;97418.27;;;0.31;74.79
34205;BME280;20471;49.680;20.074;2022-11-15T03:28:05;97415.33;;;0.34;74.83
34205;BME280;20471;49.680;20.074;2022-11-15T03:30:34;97409.11;;;0.30;74.78
34205;BME280;20471;49.680;20.074;2022-11-15T03:33:04;97404.64;;;0.30;74.79
34205;BME280;20471;49.680;20.074;2022-11-15T03:35:35;97404.01;;;0.32;74.81
34205;BME280;20471;49.680;20.074;2022-11-15T03:40:47;97405.69;;;0.33;74.83
34205;BME280;20471;49.680;20.074;2022-11-15T03:46:07;97401.01;;;0.31;74.97
34205;BME280;20471;49.680;20.074;2022-11-15T03:48:44;97396.33;;;0.29;75.00
34205;BME280;20471;49.680;20.074;2022-11-15T03:51:19;97397.25;;;0.24;75.02
34205;BME280;20471;49.680;20.074;2022-11-15T03:53:46;97398.92;;;0.25;75.16
34205;BME280;20471;49.680;20.074;2022-11-15T03:56:12;97396.47;;;0.28;75.21
34205;BME280;20471;49.680;20.074;2022-11-15T03:58:39;97393.53;;;0.31;75.21
34205;BME280;20471;49.680;20.074;2022-11-15T04:01:05;97383.75;;;0.31;75.16
34205;BME280;20471;49.680;20.074;2022-11-15T04:03:32;97390.09;;;0.34;75.32
34205;BME280;20471;49.680;20.074;2022-11-15T04:05:58;97384.13;;;0.36;75.31
34205;BME280;20471;49.680;20.074;2022-11-15T04:08:25;97380.83;;;0.39;75.39
34205;BME280;20471;49.680;20.074;2022-11-15T04:10:52;97383.14;;;0.38;75.37
34205;BME280;20471;49.680;20.074;2022-11-15T04:13:18;97383.98;;;0.38;75.42
34205;BME280;20471;49.680;20.074;2022-11-15T04:15:44;97373.01;;;0.37;75.52
34205;BME280;20471;49.680;20.074;2022-11-15T04:18:11;97367.55;;;0.39;75.47
34205;BME280;20471;49.680;20.074;2022-11-15T04:20:38;97371.88;;;0.40;75.50
34205;BME280;20471;49.680;20.074;2022-11-15T04:23:23;97363.22;;;0.38;75.45
34205;BME280;20471;49.680;20.074;2022-11-15T04:26:14;97366.86;;;0.36;75.51
34205;BME280;20471;49.680;20.074;2022-11-15T04:28:42;97367.41;;;0.40;75.61
34205;BME280;20471;49.680;20.074;2022-11-15T04:31:29;97356.98;;;0.43;75.57
34205;BME280;20471;49.680;20.074;2022-11-15T04:33:56;97356.70;;;0.46;75.63
34205;BME280;20471;49.680;20.074;2022-11-15T04:36:23;97353.06;;;0.47;75.53
34205;BME280;20471;49.680;20.074;2022-11-15T04:39:08;97348.41;;;0.49;75.62
34205;BME280;20471;49.680;20.074;2022-11-15T04:41:35;97340.27;;;0.46;75.67
34205;BME280;20471;49.680;20.074;2022-11-15T04:44:02;97339.78;;;0.47;75.65
34205;BME280;20471;49.680;20.074;2022-11-15T04:46:28;97338.40;;;0.43;75.73
34205;BME280;20471;49.680;20.074;2022-11-15T04:48:55;97334.41;;;0.43;75.79
34205;BME280;20471;49.680;20.074;2022-11-15T04:51:21;97331.95;;;0.45;75.79
34205;BME280;20471;49.680;20.074;2022-11-15T04:53:48;97325.52;;;0.48;75.75
34205;BME280;20471;49.680;20.074;2022-11-15T04:56:15;97324.85;;;0.50;75.81
34205;BME280;20471;49.680;20.074;2022-11-15T04:58:41;97323.52;;;0.50;75.89
34205;BME280;20471;49.680;20.074;2022-11-15T05:01:09;97322.17;;;0.46;76.02
34205;BME280;20471;49.680;20.074;2022-11-15T05:03:38;97318.34;;;0.44;76.12
34205;BME280;20471;49.680;20.074;2022-11-15T05:06:22;97318.34;;;0.44;76.24
34205;BME280;20471;49.680;20.074;2022-11-15T05:08:50;97309.48;;;0.40;76.26
34205;BME280;20471;49.680;20.074;2022-11-15T05:11:16;97307.52;;;0.42;76.26
34205;BME280;20471;49.680;20.074;2022-11-15T05:13:43;97302.75;;;0.45;76.17
34205;BME280;20471;49.680;20.074;2022-11-15T05:16:10;97304.56;;;0.45;76.02
34205;BME280;20471;49.680;20.074;2022-11-15T05:18:36;97298.27;;;0.46;76.01
34205;BME280;20471;49.680;20.074;2022-11-15T05:21:09;97294.78;;;0.45;75.98
34205;BME280;20471;49.680;20.074;2022-11-15T05:23:38;97290.65;;;0.47;75.95
34205;BME280;20471;49.680;20.074;2022-11-15T05:26:06;97295.47;;;0.47;76.17
34205;BME280;20471;49.680;20.074;2022-11-15T05:28:33;97287.01;;;0.48;76.30
34205;BME280;20471;49.680;20.074;2022-11-15T05:31:08;97285.69;;;0.48;76.42
34205;BME280;20471;49.680;20.074;2022-11-15T05:33:38;97288.65;;;0.49;76.36
34205;BME280;20471;49.680;20.074;2022-11-15T05:36:18;97289.00;;;0.50;76.36
34205;BME280;20471;49.680;20.074;2022-11-15T05:38:50;97281.72;;;0.52;76.33
34205;BME280;20471;49.680;20.074;2022-11-15T05:41:19;97282.90;;;0.53;76.30
34205;BME280;20471;49.680;20.074;2022-11-15T05:43:48;97284.91;;;0.55;76.32
34205;BME280;20471;49.680;20.074;2022-11-15T05:46:17;97278.13;;;0.57;76.34
34205;BME280;20471;49.680;20.074;2022-11-15T05:48:46;97280.78;;;0.57;76.33
34205;BME280;20471;49.680;20.074;2022-11-15T05:51:16;97276.50;;;0.60;76.41
34205;BME280;20471;49.680;20.074;2022-11-15T05:53:45;97278.48;;;0.62;76.41
34205;BME280;20471;49.680;20.074;2022-11-15T05:56:12;97272.53;;;0.64;76.44
34205;BME280;20471;49.680;20.074;2022-11-15T05:58:40;97274.01;;;0.62;76.64
34205;BME280;20471;49.680;20.074;2022-11-15T06:01:07;97272.33;;;0.61;76.62
34205;BME280;20471;49.680;20.074;2022-11-15T06:03:34;97270.37;;;0.63;76.55
34205;BME280;20471;49.680;20.074;2022-11-15T06:06:00;97269.38;;;0.64;76.58
34205;BME280;20471;49.680;20.074;2022-11-15T06:08:27;97269.58;;;0.67;76.62
34205;BME280;20471;49.680;20.074;2022-11-15T06:10:53;97272.58;;;0.68;76.55
34205;BME280;20471;49.680;20.074;2022-11-15T06:13:20;97266.92;;;0.67;76.60
34205;BME280;20471;49.680;20.074;2022-11-15T06:15:47;97260.62;;;0.68;76.61
34205;BME280;20471;49.680;20.074;2022-11-15T06:18:13;97263.28;;;0.68;76.56
34205;BME280;20471;49.680;20.074;2022-11-15T06:20:40;97267.45;;;0.70;76.55
34205;BME280;20471;49.680;20.074;2022-11-15T06:23:06;97257.67;;;0.71;76.52
34205;BME280;20471;49.680;20.074;2022-11-15T06:25:33;97253.01;;;0.73;76.55
34205;BME280;20471;49.680;20.074;2022-11-15T06:27:59;97248.03;;;0.74;76.64
34205;BME280;20471;49.680;20.074;2022-11-15T06:30:26;97252.55;;;0.78;76.74
34205;BME280;20471;49.680;20.074;2022-11-15T06:32:58;97255.06;;;0.79;76.78
34205;BME280;20471;49.680;20.074;2022-11-15T06:35:27;97248.42;;;0.79;76.79
34205;BME280;20471;49.680;20.074;2022-11-15T06:37:54;97250.78;;;0.82;76.80
34205;BME280;20471;49.680;20.074;2022-11-15T06:40:21;97246.15;;;0.84;76.88
34205;BME280;20471;49.680;20.074;2022-11-15T06:42:48;97251.47;;;0.88;76.90
34205;BME280;20471;49.680;20.074;2022-11-15T06:45:14;97250.34;;;0.91;76.99
34205;BME280;20471;49.680;20.074;2022-11-15T06:47:45;97249.05;;;0.95;77.04
34205;BME280;20471;49.680;20.074;2022-11-15T06:50:12;97249.89;;;0.99;77.17
34205;BME280;20471;49.680;20.074;2022-11-15T06:52:39;97248.94;;;1.04;77.26
34205;BME280;20471;49.680;20.074;2022-11-15T06:55:07;97256.43;;;1.09;77.35
34205;BME280;20471;49.680;20.074;2022-11-15T06:57:34;97259.47;;;1.14;77.42
34205;BME280;20471;49.680;20.074;2022-11-15T07:00:03;97261.67;;;1.19;77.39
34205;BME280;20471;49.680;20.074;2022-11-15T07:02:30;97259.02;;;1.23;77.41
34205;BME280;20471;49.680;20.074;2022-11-15T07:04:57;97259.05;;;1.27;77.48
34205;BME280;20471;49.680;20.074;2022-11-15T07:07:24;97254.41;;;1.29;77.53
34205;BME280;20471;49.680;20.074;2022-11-15T07:09:50;97249.63;;;1.32;77.53
34205;BME280;20471;49.680;20.074;2022-11-15T07:12:17;97248.45;;;1.35;77.56
34205;BME280;20471;49.680;20.074;2022-11-15T07:14:43;97245.64;;;1.36;77.73
34205;BME280;20471;49.680;20.074;2022-11-15T07:17:10;97251.48;;;1.40;77.74
34205;BME280;20471;49.680;20.074;2022-11-15T07:19:36;97248.02;;;1.43;77.85
34205;BME280;20471;49.680;20.074;2022-11-15T07:22:03;97257.52;;;1.50;77.95
34205;BME280;20471;49.680;20.074;2022-11-15T07:24:30;97243.41;;;1.54;77.95
34205;BME280;20471;49.680;20.074;2022-11-15T07:26:56;97248.92;;;1.60;77.96
34205;BME280;20471;49.680;20.074;2022-11-15T07:29:23;97243.31;;;1.67;77.96
34205;BME280;20471;49.680;20.074;2022-11-15T07:31:49;97239.01;;;1.74;77.99
34205;BME280;20471;49.680;20.074;2022-11-15T07:34:16;97235.38;;;1.79;78.06
34205;BME280;20471;49.680;20.074;2022-11-15T07:36:43;97233.23;;;1.87;78.04
34205;BME280;20471;49.680;20.074;2022-11-15T07:39:09;97232.25;;;1.96;78.12
34205;BME280;20471;49.680;20.074;2022-11-15T07:41:38;97235.95;;;2.07;78.38
34205;BME280;20471;49.680;20.074;2022-11-15T07:44:04;97233.33;;;2.24;78.80
34205;BME280;20471;49.680;20.074;2022-11-15T07:46:31;97222.54;;;2.37;78.98
34205;BME280;20471;49.680;20.074;2022-11-15T07:48:58;97223.88;;;2.49;79.00
34205;BME280;20471;49.680;20.074;2022-11-15T07:51:24;97210.56;;;2.62;78.93
34205;BME280;20471;49.680;20.074;2022-11-15T07:53:51;97212.39;;;2.73;78.87
34205;BME280;20471;49.680;20.074;2022-11-15T07:56:17;97212.89;;;2.85;78.91
34205;BME280;20471;49.680;20.074;2022-11-15T07:58:45;97211.05;;;2.98;78.93
34205;BME280;20471;49.680;20.074;2022-11-15T08:01:12;97199.70;;;3.12;79.06
34205;BME280;20471;49.680;20.074;2022-11-15T08:03:39;97201.80;;;3.29;79.10
34205;BME280;20471;49.680;20.074;2022-11-15T08:06:05;97198.59;;;3.45;79.18
34205;BME280;20471;49.680;20.074;2022-11-15T08:08:32;97197.52;;;3.62;79.23
34205;BME280;20471;49.680;20.074;2022-11-15T08:10:59;97193.62;;;3.81;79.31
34205;BME280;20471;49.680;20.074;2022-11-15T08:13:25;97188.33;;;4.00;79.54
34205;BME280;20471;49.680;20.074;2022-11-15T08:15:56;97185.73;;;4.19;79.55
34205;BME280;20471;49.680;20.074;2022-11-15T08:18:24;97178.73;;;4.41;79.72
34205;BME280;20471;49.680;20.074;2022-11-15T08:20:50;97180.38;;;4.64;79.73
34205;BME280;20471;49.680;20.074;2022-11-15T08:23:17;97173.52;;;4.85;79.59
34205;BME280;20471;49.680;20.074;2022-11-15T08:25:43;97172.18;;;5.03;79.40
34205;BME280;20471;49.680;20.074;2022-11-15T08:28:10;97170.48;;;5.21;79.31
34205;BME280;20471;49.680;20.074;2022-11-15T08:30:39;97172.45;;;5.42;79.34
34205;BME280;20471;49.680;20.074;2022-11-15T08:33:13;97167.13;;;5.67;79.58
34205;BME280;20471;49.680;20.074;2022-11-15T08:35:41;97158.92;;;5.94;79.68
34205;BME280;20471;49.680;20.074;2022-11-15T08:38:09;97155.52;;;6.22;79.48
34205;BME280;20471;49.680;20.074;2022-11-15T08:40:36;97149.15;;;6.44;79.44
34205;BME280;20471;49.680;20.074;2022-11-15T08:43:03;97148.75;;;6.68;79.32
34205;BME280;20471;49.680;20.074;2022-11-15T08:45:31;97145.66;;;6.93;79.21
34205;BME280;20471;49.680;20.074;2022-11-15T08:48:01;97147.20;;;7.19;79.19
34205;BME280;20471;49.680;20.074;2022-11-15T08:50:28;97146.92;;;7.42;79.10
34205;BME280;20471;49.680;20.074;2022-11-15T08:52:55;97142.84;;;7.70;79.12
34205;BME280;20471;49.680;20.074;2022-11-15T08:55:21;97138.10;;;7.95;78.89
34205;BME280;20471;49.680;20.074;2022-11-15T08:57:48;97136.73;;;8.19;78.68
34205;BME280;20471;49.680;20.074;2022-11-15T09:00:15;97131.02;;;8.42;78.37
34205;BME280;20471;49.680;20.074;2022-11-15T09:02:43;97126.59;;;8.65;77.96
34205;BME280;20471;49.680;20.074;2022-11-15T09:05:09;97131.36;;;8.89;77.73
34205;BME280;20471;49.680;20.074;2022-11-15T09:07:36;97129.89;;;9.13;77.38
34205;BME280;20471;49.680;20.074;2022-11-15T09:10:03;97134.00;;;9.35;76.85
34205;BME280;20471;49.680;20.074;2022-11-15T09:12:30;97131.25;;;9.55;76.12
34205;BME280;20471;49.680;20.074;2022-11-15T09:14:57;97122.98;;;9.79;75.95
34205;BME280;20471;49.680;20.074;2022-11-15T09:17:23;97124.37;;;10.01;75.35
34205;BME280;20471;49.680;20.074;2022-11-15T09:19:50;97121.91;;;10.22;74.99
34205;BME280;20471;49.680;20.074;2022-11-15T09:22:17;97121.14;;;10.46;74.88
34205;BME280;20471;49.680;20.074;2022-11-15T09:24:43;97116.39;;;10.73;74.21
34205;BME280;20471;49.680;20.074;2022-11-15T09:27:10;97108.51;;;10.97;73.50
34205;BME280;20471;49.680;20.074;2022-11-15T09:29:37;97103.31;;;11.20;73.19
34205;BME280;20471;49.680;20.074;2022-11-15T09:32:06;97108.98;;;11.46;72.46
34205;BME280;20471;49.680;20.074;2022-11-15T09:34:33;97107.78;;;11.69;71.32
34205;BME280;20471;49.680;20.074;2022-11-15T09:36:59;97107.02;;;11.99;70.86
34205;BME280;20471;49.680;20.074;2022-11-15T09:39:26;97103.95;;;12.43;70.27
34205;BME280;20471;49.680;20.074;2022-11-15T09:50:21;97078.73;;;14.46;66.21
34205;BME280;20471;49.680;20.074;2022-11-15T09:52:48;97071.58;;;14.71;65.39
34205;BME280;20471;49.680;20.074;2022-11-15T09:55:15;97068.95;;;14.93;64.39
34205;BME280;20471;49.680;20.074;2022-11-15T09:58:02;97061.53;;;15.05;63.76
34205;BME280;20471;49.680;20.074;2022-11-15T10:00:34;97060.13;;;15.19;63.48
34205;BME280;20471;49.680;20.074;2022-11-15T10:05:46;97049.19;;;15.53;62.29
34205;BME280;20471;49.680;20.074;2022-11-15T10:11:28;97046.05;;;15.80;60.25
34205;BME280;20471;49.680;20.074;2022-11-15T10:16:55;97041.83;;;15.92;59.49
34205;BME280;20471;49.680;20.074;2022-11-15T10:19:50;97032.31;;;15.94;59.14
34205;BME280;20471;49.680;20.074;2022-11-15T10:25:13;97027.69;;;15.92;57.60
34205;BME280;20471;49.680;20.074;2022-11-15T10:27:55;97015.33;;;15.84;57.37
34205;BME280;20471;49.680;20.074;2022-11-15T10:30:30;97017.11;;;15.74;57.22
34205;BME280;20471;49.680;20.074;2022-11-15T10:33:08;97018.18;;;15.73;56.72
34205;BME280;20471;49.680;20.074;2022-11-15T10:35:36;97008.33;;;15.67;56.75
34205;BME280;20471;49.680;20.074;2022-11-15T10:38:10;97003.19;;;15.92;56.73
34205;BME280;20471;49.680;20.074;2022-11-15T10:40:39;96998.21;;;16.11;56.38
34205;BME280;20471;49.680;20.074;2022-11-15T10:45:43;96993.99;;;16.52;55.71
34205;BME280;20471;49.680;20.074;2022-11-15T10:48:20;96988.79;;;16.77;55.65
34205;BME280;20471;49.680;20.074;2022-11-15T10:50:49;96986.20;;;16.98;54.53
34205;BME280;20471;49.680;20.074;2022-11-15T10:55:55;96982.53;;;16.82;54.06
34205;BME280;20471;49.680;20.074;2022-11-15T10:58:38;96982.16;;;16.68;53.80
34205;BME280;20471;49.680;20.074;2022-11-15T11:01:17;96979.31;;;16.58;53.79
34205;BME280;20471;49.680;20.074;2022-11-15T11:06:48;96971.55;;;16.40;53.44
34205;BME280;20471;49.680;20.074;2022-11-15T11:12:10;96959.36;;;16.20;53.17
34205;BME280;20471;49.680;20.074;2022-11-15T11:14:38;96950.34;;;16.15;53.31
34205;BME280;20471;49.680;20.074;2022-11-15T11:17:13;96954.05;;;16.06;53.22
34205;BME280;20471;49.680;20.074;2022-11-15T11:20:16;96944.95;;;15.96;53.62
34205;BME280;20471;49.680;20.074;2022-11-15T11:23:01;96943.45;;;15.80;52.91
34205;BME280;20471;49.680;20.074;2022-11-15T11:40:29;96925.66;;;15.73;52.98
34205;BME280;20471;49.680;20.074;2022-11-15T11:54:10;96910.42;;;15.99;52.94
34205;BME280;20471;49.680;20.074;2022-11-15T11:56:43;96900.59;;;16.25;52.85
34205;BME280;20471;49.680;20.074;2022-11-15T12:04:50;96898.40;;;16.96;52.68
34205;BME280;20471;49.680;20.074;2022-11-15T12:07:27;96890.27;;;17.06;52.09
34205;BME280;20471;49.680;20.074;2022-11-15T12:10:11;96890.02;;;17.10;52.29
34205;BME280;20471;49.680;20.074;2022-11-15T12:12:54;96884.66;;;17.25;52.17
34205;BME280;20471;49.680;20.074;2022-11-15T12:15:24;96878.42;;;17.42;51.95
34205;BME280;20471;49.680;20.074;2022-11-15T12:17:55;96874.67;;;17.58;51.81
34205;BME280;20471;49.680;20.074;2022-11-15T12:20:24;96867.63;;;17.75;51.13
34205;BME280;20471;49.680;20.074;2022-11-15T12:22:59;96864.91;;;17.73;51.09
34205;BME280;20471;49.680;20.074;2022-11-15T12:28:34;96864.58;;;17.59;50.80
34205;BME280;20471;49.680;20.074;2022-11-15T12:33:58;96869.09;;;17.23;50.28
34205;BME280;20471;49.680;20.074;2022-11-15T12:36:35;96861.07;;;16.99;49.89
34205;BME280;20471;49.680;20.074;2022-11-15T12:39:09;96852.55;;;16.85;49.90
34205;BME280;20471;49.680;20.074;2022-11-15T12:44:13;96856.53;;;16.65;50.35
34205;BME280;20471;49.680;20.074;2022-11-15T13:02:42;96828.02;;;16.08;50.38
34205;BME280;20471;49.680;20.074;2022-11-15T13:07:56;96821.36;;;15.94;50.53
34205;BME280;20471;49.680;20.074;2022-11-15T13:10:30;96818.78;;;15.77;50.64
34205;BME280;20471;49.680;20.074;2022-11-15T13:13:01;96820.88;;;15.68;51.08
34205;BME280;20471;49.680;20.074;2022-11-15T13:18:34;96817.91;;;15.47;51.57
34205;BME280;20471;49.680;20.074;2022-11-15T13:21:04;96824.03;;;15.35;51.99
34205;BME280;20471;49.680;20.074;2022-11-15T13:23:34;96824.10;;;15.16;51.97
34205;BME280;20471;49.680;20.074;2022-11-15T13:26:08;96820.77;;;15.11;52.05
34205;BME280;20471;49.680;20.074;2022-11-15T13:28:47;96817.77;;;15.08;51.95
34205;BME280;20471;49.680;20.074;2022-11-15T13:31:29;96817.08;;;14.96;51.89
34205;BME280;20471;49.680;20.074;2022-11-15T13:36:44;96820.09;;;14.77;52.38
34205;BME280;20471;49.680;20.074;2022-11-15T13:39:30;96810.25;;;14.71;52.39
34205;BME280;20471;49.680;20.074;2022-11-15T13:41:58;96809.38;;;14.68;52.35
34205;BME280;20471;49.680;20.074;2022-11-15T13:44:28;96809.05;;;14.65;52.75
34205;BME280;20471;49.680;20.074;2022-11-15T13:47:12;96807.32;;;14.56;52.58
34205;BME280;20471;49.680;20.074;2022-11-15T13:49:39;96806.45;;;14.53;53.04
34205;BME280;20471;49.680;20.074;2022-11-15T13:52:12;96805.49;;;14.43;53.10
34205;BME280;20471;49.680;20.074;2022-11-15T13:54:55;96803.34;;;14.28;53.33
34205;BME280;20471;49.680;20.074;2022-11-15T14:02:55;96798.78;;;14.12;53.85
34205;BME280;20471;49.680;20.074;2022-11-15T14:05:24;96789.97;;;14.04;54.22
34205;BME280;20471;49.680;20.074;2022-11-15T14:10:34;96790.34;;;13.94;54.68
34205;BME280;20471;49.680;20.074;2022-11-15T14:13:02;96788.84;;;13.84;54.88
34205;BME280;20471;49.680;20.074;2022-11-15T14:15:35;96787.08;;;13.75;55.18
34205;BME280;20471;49.680;20.074;2022-11-15T14:18:04;96788.23;;;13.65;55.33
34205;BME280;20471;49.680;20.074;2022-11-15T14:20:35;96788.94;;;13.58;55.52
34205;BME280;20471;49.680;20.074;2022-11-15T14:23:05;96786.06;;;13.48;55.75
34205;BME280;20471;49.680;20.074;2022-11-15T14:25:57;96788.89;;;13.39;56.02
34205;BME280;20471;49.680;20.074;2022-11-15T14:30:58;96783.08;;;13.18;56.59
34205;BME280;20471;49.680;20.074;2022-11-15T14:33:34;96782.38;;;13.11;56.71
34205;BME280;20471;49.680;20.074;2022-11-15T14:36:13;96783.25;;;13.00;56.96
34205;BME280;20471;49.680;20.074;2022-11-15T14:38:43;96780.38;;;12.92;57.10
34205;BME280;20471;49.680;20.074;2022-11-15T14:41:24;96779.71;;;12.85;57.18
34205;BME280;20471;49.680;20.074;2022-11-15T14:43:53;96781.39;;;12.75;57.36
34205;BME280;20471;49.680;20.074;2022-11-15T14:46:20;96771.25;;;12.68;57.83
34205;BME280;20471;49.680;20.074;2022-11-15T14:48:46;96765.89;;;12.58;57.85
34205;BME280;20471;49.680;20.074;2022-11-15T14:51:18;96757.80;;;12.47;58.20
34205;BME280;20471;49.680;20.074;2022-11-15T14:53:45;96761.23;;;12.42;58.47
34205;BME280;20471;49.680;20.074;2022-11-15T14:56:15;96762.94;;;12.34;58.85
34205;BME280;20471;49.680;20.074;2022-11-15T14:58:45;96764.14;;;12.26;58.85
34205;BME280;20471;49.680;20.074;2022-11-15T15:03:52;96763.86;;;12.14;59.09
34205;BME280;20471;49.680;20.074;2022-11-15T15:06:21;96765.61;;;12.08;59.28
34205;BME280;20471;49.680;20.074;2022-11-15T15:08:47;96763.63;;;12.04;59.49
34205;BME280;20471;49.680;20.074;2022-11-15T15:11:24;96754.86;;;11.99;59.62
34205;BME280;20471;49.680;20.074;2022-11-15T15:13:54;96751.77;;;11.93;59.65
34205;BME280;20471;49.680;20.074;2022-11-15T15:16:23;96759.75;;;11.88;59.83
34205;BME280;20471;49.680;20.074;2022-11-15T15:18:50;96755.52;;;11.80;59.93
34205;BME280;20471;49.680;20.074;2022-11-15T15:21:22;96751.47;;;11.71;60.19
34205;BME280;20471;49.680;20.074;2022-11-15T15:23:51;96754.36;;;11.67;60.52
34205;BME280;20471;49.680;20.074;2022-11-15T15:26:19;96741.77;;;11.61;60.63
34205;BME280;20471;49.680;20.074;2022-11-15T15:28:46;96748.65;;;11.54;60.69
34205;BME280;20471;49.680;20.074;2022-11-15T15:31:14;96744.98;;;11.49;60.94
34205;BME280;20471;49.680;20.074;2022-11-15T15:33:41;96753.28;;;11.45;60.96
34205;BME280;20471;49.680;20.074;2022-11-15T15:36:16;96753.30;;;11.36;61.11
34205;BME280;20471;49.680;20.074;2022-11-15T15:38:43;96750.65;;;11.27;61.30
34205;BME280;20471;49.680;20.074;2022-11-15T15:41:16;96751.81;;;11.19;61.61
34205;BME280;20471;49.680;20.074;2022-11-15T15:43:43;96746.19;;;11.11;61.72